Time;durP1;ratioP1;P1;durP2;ratioP2;P2;SDS_P1;SDS_P2;PMS_P1;PMS_P2;Temp;Humidity;BMP_temperature;BMP_pressure;BME280_temperature;BME280_humidity;BME280_pressure;Samples;Min_cycle;Max_cycle;Signal;HPM_P1;HPM_P2
2024/02/08 00:01:01;;;;;;;5.47;1.00;;;5.00;79.90;;;;;;5030471;28;20029;-61
2024/02/08 00:03:27;;;;;;;6.75;1.60;;;5.00;79.90;;;;;;5029760;28;20091;-62
2024/02/08 00:05:53;;;;;;;1.95;0.75;;;5.00;79.90;;;;;;5025589;28;20509;-62
2024/02/08 00:08:18;;;;;;;1.88;1.27;;;5.00;79.90;;;;;;5029125;28;20037;-61
2024/02/08 00:10:44;;;;;;;1.60;0.77;;;5.10;79.90;;;;;;5029023;28;20037;-62
2024/02/08 00:13:12;;;;;;;1.98;1.05;;;5.10;79.90;;;;;;5030085;28;20028;-62
2024/02/08 00:15:39;;;;;;;2.80;1.05;;;5.10;80.00;;;;;;5029656;28;20060;-62
2024/02/08 00:18:05;;;;;;;0.40;0.38;;;5.10;80.00;;;;;;5033645;28;20100;-62
2024/02/08 00:20:31;;;;;;;7.05;0.77;;;5.10;80.00;;;;;;5027708;28;20457;-62
2024/02/08 00:22:57;;;;;;;3.25;1.05;;;5.10;79.90;;;;;;5029876;28;20026;-62
2024/02/08 00:25:24;;;;;;;0.85;0.70;;;5.10;80.00;;;;;;5061301;28;20486;-61
2024/02/08 00:27:53;;;;;;;1.42;0.70;;;5.10;80.00;;;;;;5027737;28;20026;-62
2024/02/08 00:30:19;;;;;;;2.33;1.02;;;5.10;80.00;;;;;;5027120;28;20030;-62
2024/02/08 00:32:46;;;;;;;2.33;1.30;;;5.00;80.00;;;;;;5027360;28;20500;-62
2024/02/08 00:35:18;;;;;;;2.42;1.30;;;5.00;80.10;;;;;;5024623;28;20029;-62
2024/02/08 00:37:48;;;;;;;4.10;1.50;;;5.00;80.20;;;;;;5027200;28;20370;-62
2024/02/08 00:40:15;;;;;;;1.20;0.65;;;5.00;80.30;;;;;;5035633;28;20036;-61
2024/02/08 00:42:42;;;;;;;2.38;0.50;;;5.00;80.30;;;;;;5030689;28;20025;-61
2024/02/08 00:45:10;;;;;;;1.85;0.70;;;5.00;80.30;;;;;;5034300;28;20543;-62
2024/02/08 00:47:36;;;;;;;1.85;0.90;;;5.00;80.30;;;;;;5062397;28;20029;-62
2024/02/08 00:50:03;;;;;;;3.72;0.68;;;5.00;80.30;;;;;;5023969;28;20030;-61
2024/02/08 00:52:29;;;;;;;3.92;1.23;;;5.00;80.90;;;;;;5029641;28;20044;-61
2024/02/08 00:54:55;;;;;;;0.30;0.30;;;5.00;80.30;;;;;;5027820;28;20477;-68
2024/02/08 00:57:21;;;;;;;1.80;0.90;;;5.00;80.40;;;;;;5033194;28;20037;-68
2024/02/08 00:59:47;;;;;;;2.40;1.23;;;5.10;80.40;;;;;;5034663;28;20021;-68
2024/02/08 01:02:13;;;;;;;3.03;1.02;;;5.10;80.40;;;;;;5035382;28;20091;-68
2024/02/08 01:04:39;;;;;;;2.20;0.93;;;5.00;80.50;;;;;;5027969;28;20121;-68
2024/02/08 01:07:05;;;;;;;2.72;0.95;;;5.10;80.60;;;;;;5028580;28;20055;-68
2024/02/08 01:09:31;;;;;;;2.75;1.33;;;5.10;80.60;;;;;;5024932;28;20082;-63
2024/02/08 01:11:57;;;;;;;3.50;1.30;;;5.10;80.70;;;;;;5029749;28;20037;-62
2024/02/08 01:14:25;;;;;;;3.70;1.05;;;5.10;80.80;;;;;;5026269;28;20125;-61
2024/02/08 01:16:51;;;;;;;9.77;1.20;;;5.00;80.90;;;;;;5025873;28;20156;-62
2024/02/08 01:19:25;;;;;;;6.15;1.45;;;5.00;81.00;;;;;;5038263;28;20116;-62
2024/02/08 01:21:51;;;;;;;0.85;0.47;;;5.00;81.00;;;;;;5015477;28;20052;-62
2024/02/08 01:24:18;;;;;;;4.05;1.08;;;5.00;81.10;;;;;;5031772;28;20116;-62
2024/02/08 01:26:47;;;;;;;3.50;0.60;;;5.00;81.30;;;;;;5027107;28;20532;-62
2024/02/08 01:29:14;;;;;;;0.68;0.68;;;5.00;81.20;;;;;;5021702;28;20029;-62
2024/02/08 01:31:40;;;;;;;2.30;1.02;;;5.00;81.20;;;;;;5026242;28;20036;-62
2024/02/08 01:34:09;;;;;;;1.33;0.95;;;5.00;81.20;;;;;;5024945;28;20125;-62
2024/02/08 01:36:39;;;;;;;4.05;1.10;;;5.00;81.20;;;;;;5024402;28;20033;-68
2024/02/08 01:39:22;;;;;;;2.17;0.95;;;5.00;81.30;;;;;;5032309;28;20499;-68
2024/02/08 01:41:58;;;;;;;3.72;1.10;;;5.00;81.40;;;;;;5036195;28;20033;-62
2024/02/08 01:44:24;;;;;;;1.77;0.70;;;5.10;81.40;;;;;;5028421;28;20021;-62
2024/02/08 01:46:50;;;;;;;1.25;0.85;;;5.10;81.30;;;;;;5030817;28;20033;-62
2024/02/08 01:49:25;;;;;;;4.18;0.73;;;5.10;81.30;;;;;;5028886;28;20028;-62
2024/02/08 01:51:59;;;;;;;2.50;0.85;;;5.10;81.40;;;;;;5025099;28;20559;-62
2024/02/08 01:54:27;;;;;;;8.68;0.55;;;5.10;81.50;;;;;;5026758;28;20032;-62
2024/02/08 01:56:54;;;;;;;0.68;0.45;;;5.10;81.50;;;;;;5028447;28;20041;-62
2024/02/08 01:59:20;;;;;;;20.42;1.42;;;5.10;81.40;;;;;;5030236;28;20017;-62
2024/02/08 02:01:56;;;;;;;2.05;0.77;;;5.10;81.30;;;;;;5065060;28;20040;-63
2024/02/08 02:04:22;;;;;;;2.03;0.93;;;5.10;81.30;;;;;;5027098;28;20128;-62
2024/02/08 02:06:48;;;;;;;1.23;1.05;;;5.10;81.50;;;;;;5029975;28;20080;-62
2024/02/08 02:09:24;;;;;;;1.17;0.82;;;5.10;81.50;;;;;;5033627;28;20057;-62
2024/02/08 02:12:10;;;;;;;4.45;1.13;;;5.10;81.60;;;;;;5032011;28;20128;-62
2024/02/08 02:14:38;;;;;;;0.52;0.32;;;5.10;81.60;;;;;;5032487;28;20037;-61
2024/02/08 02:17:15;;;;;;;3.00;1.23;;;5.10;81.50;;;;;;5031106;28;20048;-62
2024/02/08 02:19:42;;;;;;;3.20;0.68;;;5.10;81.50;;;;;;5027960;28;20090;-62
2024/02/08 02:22:10;;;;;;;1.15;0.88;;;5.10;81.40;;;;;;5031802;28;20079;-61
2024/02/08 02:24:45;;;;;;;0.30;0.30;;;5.10;81.30;;;;;;5033197;28;20439;-62
2024/02/08 02:27:11;;;;;;;1.40;0.75;;;5.10;81.40;;;;;;5032248;28;20033;-62
2024/02/08 02:29:39;;;;;;;2.38;0.90;;;5.10;81.40;;;;;;5028565;28;20038;-62
2024/02/08 02:32:10;;;;;;;1.60;0.68;;;5.10;81.40;;;;;;5031834;28;20037;-68
2024/02/08 02:34:36;;;;;;;1.30;0.73;;;5.10;81.40;;;;;;5032521;28;20515;-68
2024/02/08 02:37:02;;;;;;;1.77;0.40;;;5.10;81.40;;;;;;5029571;28;20084;-68
2024/02/08 02:39:31;;;;;;;1.02;0.55;;;5.10;81.40;;;;;;5049094;28;20037;-68
2024/02/08 02:41:58;;;;;;;4.25;1.25;;;5.20;81.40;;;;;;5030231;28;20034;-68
2024/02/08 02:44:27;;;;;;;3.28;1.33;;;5.10;81.30;;;;;;5029245;28;20124;-68
2024/02/08 02:46:54;;;;;;;1.55;0.65;;;5.10;81.40;;;;;;5033640;28;20029;-68
2024/02/08 02:49:21;;;;;;;4.80;2.05;;;5.10;81.50;;;;;;5037136;28;20412;-68
2024/02/08 02:51:50;;;;;;;0.60;0.60;;;5.20;81.50;;;;;;5028593;28;20374;-68
2024/02/08 02:54:16;;;;;;;1.60;0.75;;;5.20;81.50;;;;;;5029503;28;20392;-68
2024/02/08 02:56:48;;;;;;;0.93;0.85;;;5.10;81.40;;;;;;5032298;28;20140;-68
2024/02/08 02:59:17;;;;;;;1.23;0.63;;;5.20;81.60;;;;;;5030314;28;20132;-68
2024/02/08 03:01:49;;;;;;;6.30;0.63;;;5.20;81.70;;;;;;5030992;28;20026;-68
2024/02/08 03:04:18;;;;;;;2.78;0.70;;;5.20;81.80;;;;;;5033167;28;20029;-68
2024/02/08 03:06:48;;;;;;;0.77;0.60;;;5.20;81.80;;;;;;5030608;28;20044;-68
2024/02/08 03:09:17;;;;;;;0.63;0.57;;;5.20;81.70;;;;;;5028396;28;20053;-68
2024/02/08 03:11:46;;;;;;;3.05;0.85;;;5.20;81.70;;;;;;5035824;28;20321;-68
2024/02/08 03:14:14;;;;;;;1.10;0.70;;;5.20;81.70;;;;;;5035710;28;20025;-68
2024/02/08 03:16:45;;;;;;;3.35;0.82;;;5.10;81.70;;;;;;5030603;28;20049;-68
2024/02/08 03:19:11;;;;;;;1.40;0.70;;;5.20;81.90;;;;;;5027727;28;20485;-68
2024/02/08 03:21:40;;;;;;;2.50;0.77;;;5.20;81.90;;;;;;5031107;28;20054;-68
2024/02/08 03:24:09;;;;;;;3.25;0.70;;;5.20;81.90;;;;;;5029350;28;20030;-68
2024/02/08 03:26:46;;;;;;;0.73;0.60;;;5.20;81.80;;;;;;5028783;28;20492;-68
2024/02/08 03:29:13;;;;;;;1.05;0.52;;;5.20;81.80;;;;;;5029195;28;20199;-68
2024/02/08 03:31:47;;;;;;;1.65;0.95;;;5.20;81.80;;;;;;5025749;28;20485;-68
2024/02/08 03:34:19;;;;;;;1.45;0.88;;;5.20;81.90;;;;;;5030781;28;20024;-62
2024/02/08 03:36:46;;;;;;;0.90;0.57;;;5.30;82.00;;;;;;5027959;28;20021;-62
2024/02/08 03:39:46;;;;;;;1.35;0.60;;;5.30;82.10;;;;;;5030459;28;20033;-61
2024/02/08 03:42:04;;;;;;;0.70;0.65;;;5.20;82.10;;;;;;5023463;28;20033;-61
2024/02/08 03:44:30;;;;;;;1.20;1.08;;;5.20;82.10;;;;;;5028784;28;20028;-62
2024/02/08 03:47:19;;;;;;;1.95;1.08;;;5.30;82.10;;;;;;5030880;28;20030;-62
2024/02/08 03:49:49;;;;;;;2.05;0.82;;;5.20;82.00;;;;;;5027074;28;20040;-62
2024/02/08 03:52:18;;;;;;;0.60;0.50;;;5.30;82.10;;;;;;5021310;28;20038;-62
2024/02/08 03:54:45;;;;;;;1.05;0.50;;;5.30;82.10;;;;;;5050585;28;20038;-62
2024/02/08 03:57:13;;;;;;;0.70;0.60;;;5.30;82.10;;;;;;5028957;28;20093;-62
2024/02/08 03:59:40;;;;;;;0.80;0.47;;;5.30;82.10;;;;;;5026592;28;20357;-68
2024/02/08 04:02:09;;;;;;;1.60;0.77;;;5.30;82.10;;;;;;5030229;28;20026;-68
2024/02/08 04:04:53;;;;;;;0.52;0.50;;;5.30;82.10;;;;;;5030038;28;20021;-62
2024/02/08 04:07:34;;;;;;;1.65;1.15;;;5.30;82.10;;;;;;5024533;28;20036;-62
2024/02/08 04:10:18;;;;;;;4.60;1.00;;;5.30;82.20;;;;;;5029813;28;20025;-62
2024/02/08 04:53:31;;;;;;;2.35;0.68;;;5.30;82.20;;;;;;5021366;28;20053;-68
2024/02/08 04:54:13;;;;;;;1.42;0.80;;;5.40;82.50;;;;;;5019381;28;20045;-62
2024/02/08 04:56:39;;;;;;;0.90;0.47;;;5.40;82.50;;;;;;5027179;28;20021;-62
2024/02/08 04:59:08;;;;;;;1.15;0.68;;;5.40;82.50;;;;;;5030814;28;20068;-62
2024/02/08 05:01:38;;;;;;;0.93;0.75;;;5.40;82.50;;;;;;5022796;28;20033;-62
2024/02/08 05:04:04;;;;;;;1.80;0.57;;;5.40;82.50;;;;;;5031503;28;20090;-61
2024/02/08 05:06:30;;;;;;;0.85;0.65;;;5.40;82.40;;;;;;5031651;28;20451;-62
2024/02/08 05:08:59;;;;;;;1.85;1.10;;;5.40;82.90;;;;;;5032146;28;20075;-68
2024/02/08 05:11:28;;;;;;;0.88;0.77;;;5.40;82.40;;;;;;5010492;28;20033;-62
2024/02/08 05:14:00;;;;;;;3.13;1.15;;;5.30;82.50;;;;;;5027940;28;20040;-62
2024/02/08 05:16:27;;;;;;;1.40;0.90;;;5.30;82.60;;;;;;5027373;28;20570;-68
2024/02/08 05:18:55;;;;;;;1.10;0.57;;;5.30;82.80;;;;;;5029319;28;20057;-68
2024/02/08 05:21:22;;;;;;;6.13;0.73;;;5.30;82.90;;;;;;5029538;28;20033;-69
2024/02/08 05:23:51;;;;;;;4.15;0.80;;;5.30;82.90;;;;;;5030007;28;20460;-68
2024/02/08 05:26:18;;;;;;;1.73;0.90;;;5.30;82.70;;;;;;5029679;28;20040;-68
2024/02/08 05:28:48;;;;;;;3.38;1.17;;;5.30;82.70;;;;;;5027451;28;20124;-68
2024/02/08 05:31:17;;;;;;;5.82;0.90;;;5.30;82.70;;;;;;5030714;28;20087;-68
2024/02/08 05:33:43;;;;;;;1.33;0.50;;;5.30;82.70;;;;;;5024068;28;20021;-68
2024/02/08 05:36:12;;;;;;;1.30;0.88;;;5.30;82.60;;;;;;5028622;28;20461;-68
2024/02/08 05:38:41;;;;;;;3.50;1.30;;;5.30;82.60;;;;;;5029767;28;20026;-69
2024/02/08 05:41:12;;;;;;;0.95;0.70;;;5.30;82.60;;;;;;5033039;28;20460;-62
2024/02/08 05:43:56;;;;;;;0.65;0.65;;;5.30;82.60;;;;;;5030833;28;20068;-62
2024/02/08 05:46:25;;;;;;;2.05;1.05;;;5.30;82.50;;;;;;5029075;28;20034;-68
2024/02/08 05:49:11;;;;;;;2.22;1.15;;;5.30;82.60;;;;;;5033029;28;20559;-62
2024/02/08 05:51:42;;;;;;;0.40;0.40;;;5.30;82.50;;;;;;5032808;28;20030;-68
2024/02/08 05:54:08;;;;;;;3.60;0.75;;;5.30;82.60;;;;;;5033426;28;20034;-62
2024/02/08 05:56:39;;;;;;;1.92;0.70;;;5.30;82.70;;;;;;5028091;28;20428;-62
2024/02/08 05:59:08;;;;;;;1.70;1.13;;;5.30;82.70;;;;;;5032968;28;20124;-68
2024/02/08 06:01:44;;;;;;;3.13;1.05;;;5.30;82.70;;;;;;5033373;28;20110;-68
2024/02/08 06:04:24;;;;;;;1.83;1.42;;;5.30;82.70;;;;;;5035578;28;20063;-69
2024/02/08 06:06:58;;;;;;;1.40;0.98;;;5.40;82.80;;;;;;5031006;28;20033;-68
2024/02/08 06:12:09;;;;;;;2.60;1.48;;;5.40;82.80;;;;;;5027673;28;20099;-62
2024/02/08 06:14:38;;;;;;;2.72;0.85;;;5.40;83.00;;;;;;5033027;28;20022;-62
2024/02/08 06:17:07;;;;;;;0.82;0.80;;;5.40;83.00;;;;;;5030870;28;20543;-62
2024/02/08 06:19:50;;;;;;;1.15;0.85;;;5.40;83.00;;;;;;5063892;28;20022;-62
2024/02/08 06:22:29;;;;;;;3.90;1.13;;;5.40;83.50;;;;;;5031344;28;20510;-62
2024/02/08 06:25:08;;;;;;;1.48;1.15;;;5.40;82.90;;;;;;5028776;28;20034;-62
2024/02/08 06:27:37;;;;;;;2.28;0.88;;;5.40;82.90;;;;;;5029180;28;20044;-62
2024/02/08 06:30:09;;;;;;;1.52;1.08;;;5.40;82.90;;;;;;5031738;28;20037;-62
2024/02/08 06:32:43;;;;;;;1.67;0.95;;;5.40;82.80;;;;;;5033677;28;20038;-62
2024/02/08 06:35:28;;;;;;;1.77;1.00;;;5.50;82.90;;;;;;5028076;28;20132;-62
2024/02/08 06:38:00;;;;;;;1.13;0.90;;;5.50;82.80;;;;;;5031596;28;20507;-68
2024/02/08 06:40:59;;;;;;;7.07;0.65;;;5.50;82.80;;;;;;5032028;28;20026;-68
2024/02/08 07:37:56;;;;;;;3.00;1.52;;;5.60;82.70;;;;;;5033993;28;21534;-68
2024/02/08 07:40:25;;;;;;;3.17;2.00;;;5.60;82.60;;;;;;5033336;28;20048;-68
2024/02/08 07:43:16;;;;;;;3.30;1.95;;;5.60;82.60;;;;;;5027959;28;20037;-69
2024/02/08 07:45:44;;;;;;;3.28;1.85;;;5.70;82.60;;;;;;5029482;28;20037;-69
2024/02/08 07:48:13;;;;;;;3.60;2.03;;;5.70;82.50;;;;;;5025359;28;20033;-68
2024/02/08 07:50:45;;;;;;;3.20;1.85;;;5.70;82.50;;;;;;5032845;28;20017;-68
2024/02/08 07:53:33;;;;;;;6.03;2.13;;;5.70;82.60;;;;;;5027861;28;20026;-69
2024/02/08 07:56:25;;;;;;;2.00;1.60;;;5.70;82.60;;;;;;5030183;28;20029;-68
2024/02/08 07:58:48;;;;;;;1.67;1.48;;;5.70;82.70;;;;;;5029194;28;20107;-68
2024/02/08 08:01:18;;;;;;;4.97;2.50;;;5.70;82.60;;;;;;5028854;28;20033;-69
2024/02/08 08:03:49;;;;;;;5.90;2.22;;;5.70;82.60;;;;;;5031081;28;20539;-68
2024/02/08 08:06:15;;;;;;;8.60;3.10;;;5.70;82.60;;;;;;5028724;28;20439;-69
2024/02/08 08:08:43;;;;;;;7.63;2.63;;;5.70;82.60;;;;;;5029454;28;20041;-68
2024/02/08 08:11:15;;;;;;;3.22;1.92;;;5.80;82.60;;;;;;5031457;28;20061;-63
2024/02/08 08:13:52;;;;;;;;;;;5.80;82.50;;;;;;5025184;28;20112;-62
2024/02/08 08:19:07;;;;;;;5.13;2.15;;;5.80;82.50;;;;;;5030798;28;20116;-63
2024/02/08 08:24:27;;;;;;;14.00;2.80;;;5.90;82.60;;;;;;5029567;28;20103;-62
2024/02/08 08:27:07;;;;;;;4.47;2.60;;;5.90;82.60;;;;;;5030993;28;20034;-62
2024/02/08 08:29:42;;;;;;;6.45;3.30;;;6.00;83.10;;;;;;5061648;28;20025;-62
2024/02/08 08:37:44;;;;;;;13.77;2.53;;;6.10;82.40;;;;;;5031789;28;20040;-69
2024/02/08 08:42:57;;;;;;;3.80;2.78;;;6.20;82.40;;;;;;5030157;28;20041;-69
2024/02/08 08:45:23;;;;;;;5.18;2.38;;;6.20;82.40;;;;;;5031425;28;20336;-69
2024/02/08 08:48:00;;;;;;;1.70;1.60;;;6.30;82.40;;;;;;5028101;28;20547;-69
2024/02/08 08:50:31;;;;;;;6.75;2.65;;;6.30;82.40;;;;;;5030778;28;20113;-71
2024/02/08 08:53:19;;;;;;;4.38;2.30;;;6.30;82.40;;;;;;5032113;28;20036;-62
2024/02/08 08:55:49;;;;;;;3.38;2.13;;;6.40;82.50;;;;;;5023656;28;20117;-62
2024/02/08 08:58:15;;;;;;;3.45;2.20;;;6.40;82.50;;;;;;5024966;28;20025;-62
2024/02/08 09:00:46;;;;;;;7.38;2.03;;;6.40;82.40;;;;;;5030281;28;20032;-69
2024/02/08 09:03:25;;;;;;;4.45;2.50;;;6.40;82.40;;;;;;5026628;28;20117;-69
2024/02/08 09:05:56;;;;;;;4.45;2.40;;;6.40;82.50;;;;;;5029714;28;20036;-70
2024/02/08 09:08:24;;;;;;;5.72;1.75;;;6.40;82.40;;;;;;5029502;28;20029;-69
2024/02/08 09:10:50;;;;;;;4.55;2.15;;;6.50;82.50;;;;;;5010867;28;20108;-69
2024/02/08 09:13:18;;;;;;;3.25;2.33;;;6.50;82.40;;;;;;5017198;28;20032;-70
2024/02/08 09:15:48;;;;;;;4.43;1.83;;;6.50;82.40;;;;;;5028300;28;20427;-61
2024/02/08 09:18:15;;;;;;;3.70;2.10;;;6.60;82.50;;;;;;5022609;28;21221;-61
2024/02/08 09:20:42;;;;;;;2.92;2.10;;;6.60;82.40;;;;;;5000854;28;20112;-61
2024/02/08 09:23:15;;;;;;;6.75;2.60;;;6.60;82.40;;;;;;5021340;28;20357;-61
2024/02/08 09:25:45;;;;;;;4.00;1.75;;;6.70;82.50;;;;;;5023208;28;20136;-69
2024/02/08 09:28:26;;;;;;;3.88;2.05;;;6.60;82.40;;;;;;5015171;28;20036;-70
2024/02/08 09:30:58;;;;;;;2.10;1.48;;;6.70;82.50;;;;;;5028285;28;20469;-70
2024/02/08 09:33:44;;;;;;;7.03;1.48;;;6.70;82.50;;;;;;5029608;28;20029;-70
2024/02/08 09:36:14;;;;;;;3.70;2.30;;;6.70;82.40;;;;;;5033520;28;20029;-70
2024/02/08 09:38:43;;;;;;;7.53;2.20;;;6.70;82.50;;;;;;5023897;28;20135;-70
2024/02/08 09:41:17;;;;;;;15.30;2.60;;;6.70;82.50;;;;;;5014199;28;20504;-71
2024/02/08 09:43:48;;;;;;;2.63;1.85;;;6.70;82.50;;;;;;5022913;28;20128;-71
2024/02/08 09:49:01;;;;;;;4.80;1.85;;;6.80;82.60;;;;;;5026481;28;20120;-70
2024/02/08 09:51:35;;;;;;;6.38;2.45;;;6.70;82.50;;;;;;5031276;28;20036;-70
2024/02/08 09:54:15;;;;;;;10.60;3.38;;;6.70;82.50;;;;;;5020916;28;20053;-71
2024/02/08 09:56:50;;;;;;;2.97;1.98;;;6.70;82.50;;;;;;5024366;28;20492;-62
2024/02/08 09:59:40;;;;;;;3.10;2.05;;;6.70;82.70;;;;;;5024634;28;20456;-62
2024/02/08 10:02:20;;;;;;;3.13;2.10;;;6.70;82.60;;;;;;5022561;28;20072;-61
2024/02/08 10:04:49;;;;;;;1.57;1.20;;;6.70;82.50;;;;;;5026453;28;20088;-70
2024/02/08 10:07:19;;;;;;;5.38;2.22;;;6.80;82.60;;;;;;5027080;28;20048;-70
2024/02/08 10:09:47;;;;;;;4.32;2.40;;;6.80;82.50;;;;;;5025302;28;20030;-70
2024/02/08 10:12:20;;;;;;;5.30;2.40;;;6.80;82.50;;;;;;5019890;28;20370;-70
2024/02/08 10:14:54;;;;;;;2.88;1.85;;;6.80;82.50;;;;;;5020954;28;20421;-70
2024/02/08 10:17:28;;;;;;;4.68;2.47;;;6.80;82.50;;;;;;5013844;28;20046;-70
2024/02/08 10:22:53;;;;;;;3.97;2.05;;;6.90;82.40;;;;;;5019257;28;20583;-70
2024/02/08 10:28:10;;;;;;;5.03;2.13;;;6.90;82.40;;;;;;5029628;28;20087;-70
2024/02/08 10:30:44;;;;;;;6.72;2.85;;;7.00;82.40;;;;;;5012385;28;20037;-70
2024/02/08 10:33:24;;;;;;;4.13;2.38;;;7.00;82.30;;;;;;5030822;28;20503;-70
2024/02/08 10:35:53;;;;;;;3.72;2.08;;;7.10;82.30;;;;;;5030728;28;20049;-71
2024/02/08 10:38:47;;;;;;;4.78;2.72;;;7.10;82.30;;;;;;5031128;28;20034;-70
2024/02/08 10:41:11;;;;;;;3.88;2.40;;;7.10;82.20;;;;;;5034726;28;20046;-71
2024/02/08 10:43:38;;;;;;;5.45;2.33;;;7.10;82.20;;;;;;5017786;28;20052;-70
2024/02/08 10:46:16;;;;;;;2.83;1.88;;;7.10;82.20;;;;;;5036614;28;20033;-71
2024/02/08 10:48:43;;;;;;;6.93;3.30;;;7.10;82.30;;;;;;5025807;28;20043;-69
2024/02/08 10:51:12;;;;;;;6.55;2.30;;;7.10;82.30;;;;;;5039740;28;20083;-70
2024/02/08 10:53:48;;;;;;;4.50;2.00;;;7.10;82.40;;;;;;5030959;28;20041;-62
2024/02/08 10:56:16;;;;;;;5.05;2.75;;;7.20;82.40;;;;;;5017532;28;20037;-62
2024/02/08 10:58:55;;;;;;;3.55;2.38;;;7.10;82.30;;;;;;5030324;28;20048;-62
2024/02/08 11:07:23;;;;;;;8.23;2.25;;;7.10;82.50;;;;;;5021001;28;20409;-62
2024/02/08 11:09:52;;;;;;;5.47;2.83;;;7.10;82.50;;;;;;5012944;28;20667;-62
2024/02/08 11:12:29;;;;;;;4.85;2.05;;;7.00;82.60;;;;;;5023509;28;20480;-62
2024/02/08 11:15:38;;;;;;;8.93;2.88;;;7.00;82.70;;;;;;5028014;28;20034;-69
2024/02/08 11:18:06;;;;;;;4.93;2.33;;;7.10;82.70;;;;;;5033308;28;20029;-69
2024/02/08 11:20:44;;;;;;;9.10;2.55;;;7.00;82.70;;;;;;5017259;28;20112;-69
2024/02/08 11:23:23;;;;;;;3.85;2.42;;;7.00;82.70;;;;;;5033709;28;20465;-70
2024/02/08 11:25:52;;;;;;;5.90;2.60;;;7.00;82.70;;;;;;5036780;28;20467;-69
2024/02/08 11:28:26;;;;;;;3.20;2.40;;;7.00;82.80;;;;;;5037100;28;20021;-69
2024/02/08 11:30:52;;;;;;;9.57;3.20;;;7.00;82.80;;;;;;5021119;28;20033;-70
2024/02/08 11:33:31;;;;;;;7.47;2.20;;;7.10;82.90;;;;;;5023244;28;20037;-68
2024/02/08 11:36:12;;;;;;;6.25;2.72;;;7.10;82.90;;;;;;5032701;28;20029;-68
2024/02/08 11:38:46;;;;;;;3.47;2.35;;;7.10;82.90;;;;;;5032393;28;20037;-62
2024/02/08 11:41:14;;;;;;;3.03;2.38;;;7.10;82.90;;;;;;5022433;28;20037;-69
2024/02/08 11:43:47;;;;;;;3.13;2.53;;;7.10;82.90;;;;;;5041608;28;20041;-68
2024/02/08 11:46:20;;;;;;;4.65;2.33;;;7.20;82.90;;;;;;5040374;28;20030;-68
2024/02/08 11:48:46;;;;;;;9.07;2.67;;;7.20;82.90;;;;;;5033431;28;20029;-62
2024/02/08 11:51:16;;;;;;;6.43;2.70;;;7.10;82.90;;;;;;5033562;28;20440;-62
2024/02/08 11:53:46;;;;;;;10.40;2.85;;;7.10;82.90;;;;;;5033539;28;20095;-62
2024/02/08 11:56:15;;;;;;;8.60;2.55;;;7.10;83.00;;;;;;5030523;28;20044;-62
2024/02/08 11:58:44;;;;;;;11.55;3.55;;;7.10;83.10;;;;;;5020457;28;20026;-69
2024/02/08 12:01:14;;;;;;;4.60;2.08;;;7.20;83.10;;;;;;5022383;28;20033;-69
2024/02/08 12:03:41;;;;;;;3.45;2.53;;;7.20;83.10;;;;;;5020261;28;20451;-69
2024/02/08 12:06:23;;;;;;;6.28;2.20;;;7.30;83.10;;;;;;5009591;28;20034;-63
2024/02/08 12:09:03;;;;;;;8.07;4.03;;;7.30;83.10;;;;;;5017367;28;20025;-63
2024/02/08 12:11:35;;;;;;;4.20;2.40;;;7.30;83.10;;;;;;5021254;28;20468;-63
2024/02/08 12:14:12;;;;;;;7.05;2.47;;;7.30;83.10;;;;;;5012420;28;20545;-63
2024/02/08 12:16:46;;;;;;;4.18;1.98;;;7.30;83.00;;;;;;5022667;28;20084;-68
2024/02/08 12:19:19;;;;;;;4.93;2.20;;;7.30;83.00;;;;;;5025733;28;20378;-68
2024/02/08 12:21:56;;;;;;;5.00;2.83;;;7.30;83.00;;;;;;5035148;28;20041;-69
2024/02/08 12:24:23;;;;;;;8.20;2.30;;;7.20;83.10;;;;;;5027434;28;20029;-69
2024/02/08 12:26:53;;;;;;;5.45;2.17;;;7.20;83.20;;;;;;5020961;28;20037;-69
2024/02/08 12:29:20;;;;;;;8.57;3.20;;;7.20;83.20;;;;;;5018728;28;20064;-68
2024/02/08 12:31:47;;;;;;;3.25;2.22;;;7.20;83.20;;;;;;5033152;28;20040;-63
2024/02/08 12:34:20;;;;;;;4.57;2.00;;;7.10;83.20;;;;;;5030380;28;20034;-63
2024/02/08 12:36:46;;;;;;;5.93;3.17;;;7.20;83.30;;;;;;5025341;28;20029;-63
2024/02/08 12:39:18;;;;;;;6.70;2.45;;;7.20;83.30;;;;;;5032697;28;20435;-63
2024/02/08 12:41:45;;;;;;;5.38;1.58;;;7.20;83.20;;;;;;5052499;28;20373;-62
2024/02/08 12:44:12;;;;;;;4.63;2.50;;;7.20;83.20;;;;;;5025753;28;20033;-63
2024/02/08 12:46:37;;;;;;;4.40;2.42;;;7.20;83.20;;;;;;5028232;28;20033;-63
2024/02/08 12:49:07;;;;;;;4.75;2.60;;;7.10;83.20;;;;;;5027019;28;20061;-63
2024/02/08 12:51:36;;;;;;;4.95;2.75;;;7.10;83.20;;;;;;5026765;28;20021;-63
2024/02/08 12:54:07;;;;;;;2.65;1.70;;;7.00;83.30;;;;;;5028691;28;20469;-63
2024/02/08 12:56:35;;;;;;;5.65;2.45;;;7.00;83.30;;;;;;5032638;28;20029;-63
2024/02/08 12:59:02;;;;;;;4.80;2.63;;;7.00;83.40;;;;;;5026370;28;20378;-63
2024/02/08 13:01:39;;;;;;;3.75;1.80;;;7.00;83.40;;;;;;5027514;28;20025;-68
2024/02/08 13:04:06;;;;;;;2.80;1.50;;;7.00;83.40;;;;;;5034229;28;20030;-68
2024/02/08 13:06:32;;;;;;;3.17;1.67;;;6.90;83.50;;;;;;5064869;28;20441;-63
2024/02/08 13:09:25;;;;;;;4.38;1.60;;;6.80;83.60;;;;;;5036882;28;20484;-63
2024/02/08 13:11:50;;;;;;;6.25;2.60;;;6.80;83.60;;;;;;5028400;28;20072;-63
2024/02/08 13:14:19;;;;;;;7.43;1.90;;;6.70;83.60;;;;;;5028409;28;20021;-63
2024/02/08 13:16:45;;;;;;;9.73;2.08;;;6.70;83.60;;;;;;5030657;28;20049;-63
2024/02/08 13:19:13;;;;;;;10.38;2.00;;;6.70;83.60;;;;;;5031789;28;20534;-63
2024/02/08 13:21:45;;;;;;;2.63;1.58;;;6.70;83.70;;;;;;5034469;28;20033;-63
2024/02/08 13:24:10;;;;;;;1.83;1.00;;;6.60;83.70;;;;;;5030144;28;20504;-63
2024/02/08 13:26:36;;;;;;;2.08;1.48;;;6.70;83.70;;;;;;5027659;28;20029;-63
2024/02/08 13:29:03;;;;;;;1.75;1.17;;;6.60;83.60;;;;;;5028231;28;20037;-63
2024/02/08 13:31:29;;;;;;;5.70;1.75;;;6.60;83.60;;;;;;5043949;28;20511;-63
2024/02/08 13:33:55;;;;;;;2.67;1.60;;;6.70;83.60;;;;;;5058102;28;20026;-63
2024/02/08 13:36:25;;;;;;;5.38;1.50;;;6.70;83.60;;;;;;5020142;28;20041;-62
2024/02/08 13:38:51;;;;;;;2.15;1.17;;;6.70;83.50;;;;;;5019848;28;20026;-63
2024/02/08 13:41:17;;;;;;;3.67;1.85;;;6.60;83.50;;;;;;5015432;28;20029;-63
2024/02/08 13:43:46;;;;;;;3.78;1.55;;;6.60;83.60;;;;;;5029943;28;20041;-62
2024/02/08 13:46:14;;;;;;;3.38;0.80;;;6.60;83.70;;;;;;5034225;28;20491;-63
2024/02/08 13:48:41;;;;;;;7.55;1.27;;;6.50;83.60;;;;;;5026036;28;20388;-63
2024/02/08 13:51:07;;;;;;;11.07;1.90;;;6.50;83.70;;;;;;5035554;28;20439;-63
2024/02/08 13:53:35;;;;;;;1.25;0.98;;;6.50;83.70;;;;;;5037579;28;20029;-62
2024/02/08 13:56:05;;;;;;;1.67;0.93;;;6.50;83.60;;;;;;5028548;28;20030;-63
2024/02/08 13:58:35;;;;;;;2.47;0.80;;;6.50;83.70;;;;;;5029054;28;20018;-63
2024/02/08 14:01:01;;;;;;;3.40;0.95;;;6.50;83.70;;;;;;5040088;28;20033;-69
2024/02/08 14:03:29;;;;;;;1.05;0.82;;;6.50;83.70;;;;;;5033797;28;20078;-69
2024/02/08 14:05:55;;;;;;;0.47;0.47;;;6.50;83.60;;;;;;5034557;28;20396;-70
2024/02/08 14:08:23;;;;;;;2.67;1.15;;;6.50;83.60;;;;;;5034583;28;20025;-63
2024/02/08 14:10:49;;;;;;;1.75;0.60;;;6.50;83.60;;;;;;5031592;28;20152;-61
2024/02/08 14:13:16;;;;;;;0.45;0.45;;;6.50;83.50;;;;;;5030556;28;20467;-63
2024/02/08 14:15:48;;;;;;;1.45;0.70;;;6.40;83.50;;;;;;5029696;28;20052;-63
2024/02/08 14:19:16;;;;;;;1.08;0.50;;;6.30;83.60;;;;;;5032076;28;20033;-63
2024/02/08 14:21:11;;;;;;;1.42;0.47;;;6.30;83.70;;;;;;5024467;28;20072;-61
2024/02/08 14:23:43;;;;;;;2.25;1.00;;;6.30;83.80;;;;;;5031448;28;20079;-61
2024/02/08 14:26:21;;;;;;;0.73;0.52;;;6.30;83.80;;;;;;5031761;28;20124;-61
2024/02/08 14:28:47;;;;;;;1.75;0.65;;;6.30;83.80;;;;;;5034807;28;20033;-62
2024/02/08 14:31:13;;;;;;;1.13;0.30;;;6.30;83.70;;;;;;5030754;28;20052;-68
2024/02/08 14:33:46;;;;;;;1.13;1.02;;;6.30;83.80;;;;;;5033545;28;20082;-67
2024/02/08 14:36:13;;;;;;;1.02;0.52;;;6.30;83.70;;;;;;5033683;28;20025;-68
2024/02/08 14:38:45;;;;;;;1.55;0.90;;;6.30;83.70;;;;;;5030318;28;20184;-67
2024/02/08 14:41:32;;;;;;;1.65;1.25;;;6.30;83.90;;;;;;5032536;28;20072;-68
2024/02/08 14:44:05;;;;;;;2.78;1.33;;;6.30;83.90;;;;;;5029425;28;20116;-68
2024/02/08 14:46:32;;;;;;;1.45;0.65;;;6.30;83.90;;;;;;5031054;28;20084;-62
2024/02/08 14:49:05;;;;;;;2.75;0.98;;;6.30;84.00;;;;;;5026234;28;20447;-61
2024/02/08 14:51:36;;;;;;;;;;;6.30;84.00;;;;;;5016774;28;20113;-62
2024/02/08 14:54:02;;;;;;;1.90;0.95;;;6.30;84.00;;;;;;5020078;28;20348;-61
2024/02/08 14:56:28;;;;;;;0.63;0.63;;;6.20;84.10;;;;;;5016342;28;20028;-62
2024/02/08 14:58:56;;;;;;;1.25;1.15;;;6.20;84.20;;;;;;5027962;28;20484;-62
2024/02/08 15:01:38;;;;;;;1.20;0.95;;;6.20;84.10;;;;;;5032579;28;20477;-62
2024/02/08 15:04:17;;;;;;;2.63;1.15;;;6.20;84.30;;;;;;5027887;28;20040;-62
2024/02/08 15:12:10;;;;;;;2.55;1.10;;;6.10;84.30;;;;;;5022706;28;20030;-67
2024/02/08 15:14:36;;;;;;;4.03;1.10;;;6.10;84.40;;;;;;5031780;28;20566;-67
2024/02/08 15:17:18;;;;;;;0.98;0.77;;;6.00;84.40;;;;;;5035790;28;20057;-67
2024/02/08 15:19:48;;;;;;;2.88;1.15;;;6.00;84.50;;;;;;5038697;28;20094;-67
2024/02/08 15:25:06;;;;;;;1.52;0.88;;;6.00;84.60;;;;;;5031560;28;20034;-62
2024/02/08 15:27:54;;;;;;;1.38;0.73;;;6.00;84.60;;;;;;5029107;28;20022;-62
2024/02/08 15:30:21;;;;;;;1.55;0.93;;;5.90;84.60;;;;;;5028607;28;20034;-61